createdAt,value
2022-10-29T00:03:49.847Z,22.58
2022-10-29T00:06:17.811Z,19.92
2022-10-29T00:08:45.492Z,25.42
2022-10-29T00:11:18.829Z,22.45
2022-10-29T00:13:47.079Z,16.10
2022-10-29T00:16:16.984Z,25.25
2022-10-29T00:18:44.971Z,25.90
2022-10-29T00:21:14.242Z,17.08
2022-10-29T00:23:43.145Z,17.88
2022-10-29T00:26:11.391Z,25.15
2022-10-29T00:28:39.724Z,29.13
2022-10-29T00:31:08.863Z,18.92
2022-10-29T00:33:36.639Z,22.63
2022-10-29T00:36:09.348Z,22.73
2022-10-29T00:38:37.699Z,26.55
2022-10-29T00:41:05.922Z,24.15
2022-10-29T00:43:34.724Z,26.92
2022-10-29T00:46:02.967Z,20.77
2022-10-29T00:48:32.065Z,25.58
2022-10-29T00:51:02.445Z,16.60
2022-10-29T00:53:34.794Z,18.88
2022-10-29T00:56:02.944Z,13.73
2022-10-29T00:58:34.415Z,15.13
2022-10-29T01:01:02.696Z,19.83
2022-10-29T01:03:32.278Z,15.23
2022-10-29T01:06:01.396Z,14.25
2022-10-29T01:08:29.001Z,13.65
2022-10-29T01:11:06.588Z,10.95
2022-10-29T01:13:53.337Z,12.45
2022-10-29T01:16:21.066Z,15.30
2022-10-29T01:18:55.704Z,13.18
2022-10-29T01:21:26.407Z,9.63
2022-10-29T01:24:03.424Z,20.50
2022-10-29T01:26:37.100Z,11.63
2022-10-29T01:29:05.045Z,16.10
2022-10-29T01:31:42.275Z,23.73
2022-10-29T01:34:36.416Z,24.13
2022-10-29T01:37:16.808Z,23.20
2022-10-29T01:40:06.115Z,22.77
2022-10-29T01:42:33.826Z,24.20
2022-10-29T01:45:10.987Z,22.02
2022-10-29T01:47:43.348Z,20.02
2022-10-29T01:50:14.514Z,24.35
2022-10-29T01:52:42.899Z,25.40
2022-10-29T01:55:10.466Z,23.50
2022-10-29T01:57:39.776Z,22.88
2022-10-29T02:00:07.693Z,17.80
2022-10-29T02:03:00.755Z,20.25
2022-10-29T02:05:29.018Z,18.33
2022-10-29T02:08:02.183Z,21.27
2022-10-29T02:10:39.728Z,22.23
2022-10-29T02:13:08.463Z,27.40
2022-10-29T02:15:55.560Z,16.65
2022-10-29T02:18:25.753Z,23.77
2022-10-29T02:20:53.684Z,26.42
2022-10-29T02:23:21.223Z,24.00
2022-10-29T02:25:49.124Z,24.92
2022-10-29T02:28:16.763Z,22.52
2022-10-29T02:30:44.625Z,27.23
2022-10-29T02:33:12.624Z,31.13
2022-10-29T02:35:40.454Z,27.90
2022-10-29T02:38:08.099Z,24.63
2022-10-29T02:40:36.023Z,29.38
2022-10-29T02:43:03.693Z,31.98
2022-10-29T02:45:34.773Z,27.73
2022-10-29T02:48:02.706Z,25.27
2022-10-29T02:50:31.188Z,25.27
2022-10-29T02:53:00.232Z,32.63
2022-10-29T02:55:27.819Z,25.13
2022-10-29T02:57:55.846Z,22.67
2022-10-29T03:00:23.887Z,23.63
2022-10-29T03:02:53.082Z,24.73
2022-10-29T03:05:20.725Z,22.95
2022-10-29T03:07:48.436Z,26.25
2022-10-29T03:10:16.095Z,33.92
2022-10-29T03:12:43.890Z,31.38
2022-10-29T03:15:11.664Z,23.63
2022-10-29T03:17:42.794Z,22.05
2022-10-29T03:20:10.579Z,21.90
2022-10-29T03:22:38.442Z,23.05
2022-10-29T03:25:06.401Z,22.52
2022-10-29T03:27:34.594Z,23.35
2022-10-29T03:30:02.476Z,26.13
2022-10-29T03:32:31.065Z,26.92
2022-10-29T03:34:59.969Z,27.98
2022-10-29T03:37:28.065Z,27.70
2022-10-29T03:39:56.366Z,26.48
2022-10-29T03:42:24.028Z,26.10
2022-10-29T03:44:51.760Z,28.48
2022-10-29T03:47:19.866Z,29.20
2022-10-29T03:49:47.405Z,31.58
2022-10-29T03:52:16.742Z,27.48
2022-10-29T03:54:44.716Z,27.60
2022-10-29T03:57:13.456Z,26.25
2022-10-29T03:59:41.122Z,28.23
2022-10-29T04:02:09.749Z,27.67
2022-10-29T04:04:40.211Z,34.72
2022-10-29T04:07:08.017Z,33.72
2022-10-29T04:09:37.793Z,33.03
2022-10-29T04:12:05.461Z,29.15
2022-10-29T04:14:33.546Z,26.77
2022-10-29T04:17:02.096Z,34.70
2022-10-29T04:19:32.239Z,25.58
2022-10-29T04:30:24.450Z,30.13
2022-10-29T04:32:52.192Z,44.47
2022-10-29T04:35:19.787Z,30.63
2022-10-29T04:37:47.523Z,30.27
2022-10-29T04:40:15.206Z,33.80
2022-10-29T04:42:43.008Z,28.35
2022-10-29T04:45:12.497Z,42.20
2022-10-29T04:47:40.064Z,31.98
2022-10-29T04:50:07.926Z,38.15
2022-10-29T04:52:38.066Z,38.28
2022-10-29T04:55:05.951Z,34.60
2022-10-29T04:57:33.574Z,32.78
2022-10-29T05:00:01.753Z,31.83
2022-10-29T05:02:30.887Z,33.30
2022-10-29T05:04:58.618Z,34.53
2022-10-29T05:07:27.398Z,31.77
2022-10-29T05:09:57.867Z,31.58
2022-10-29T05:12:25.692Z,26.17
2022-10-29T05:14:53.497Z,27.92
2022-10-29T05:17:22.006Z,33.33
2022-10-29T05:19:49.695Z,30.77
2022-10-29T05:22:17.347Z,29.77
2022-10-29T05:24:45.203Z,28.48
2022-10-29T05:27:13.203Z,31.80
2022-10-29T05:29:41.065Z,30.17
2022-10-29T05:32:08.745Z,32.78
2022-10-29T05:34:38.418Z,30.38
2022-10-29T05:37:08.422Z,34.00
2022-10-29T05:39:36.529Z,34.83
2022-10-29T05:42:06.838Z,37.47
2022-10-29T05:44:34.485Z,34.92
2022-10-29T05:47:02.441Z,25.58
2022-10-29T05:49:30.123Z,22.38
2022-10-29T05:51:57.870Z,19.10
2022-10-29T05:54:25.937Z,28.98
2022-10-29T05:56:53.797Z,26.70
2022-10-29T05:59:21.571Z,19.40
2022-10-29T06:01:49.423Z,25.63
2022-10-29T06:04:17.597Z,21.27
2022-10-29T06:06:45.746Z,26.98
2022-10-29T06:09:13.867Z,21.20
2022-10-29T06:11:41.562Z,24.63
2022-10-29T06:14:09.252Z,23.38
2022-10-29T06:16:37.158Z,30.10
2022-10-29T06:19:05.321Z,28.77
2022-10-29T06:21:33.914Z,38.15
2022-10-29T06:24:02.502Z,39.63
2022-10-29T06:26:31.943Z,29.70
2022-10-29T06:29:01.065Z,29.95
2022-10-29T06:31:29.765Z,29.38
2022-10-29T06:33:57.440Z,24.77
2022-10-29T06:36:25.586Z,22.27
2022-10-29T06:38:53.625Z,21.70
2022-10-29T06:41:25.605Z,24.63
2022-10-29T06:43:53.900Z,24.02
2022-10-29T06:46:21.728Z,22.75
2022-10-29T06:48:49.389Z,25.33
2022-10-29T06:51:17.359Z,25.20
2022-10-29T06:53:46.831Z,25.45
2022-10-29T06:56:14.476Z,24.60
2022-10-29T06:58:42.326Z,25.17
2022-10-29T07:01:11.067Z,29.67
2022-10-29T07:03:42.573Z,29.10
2022-10-29T07:06:11.982Z,37.97
2022-10-29T07:08:39.878Z,26.23
2022-10-29T07:11:07.986Z,29.23
2022-10-29T07:13:35.743Z,31.20
2022-10-29T07:16:03.528Z,29.80
2022-10-29T07:18:33.083Z,33.92
2022-10-29T07:21:03.156Z,31.38
2022-10-29T07:23:34.530Z,30.58
2022-10-29T07:26:03.419Z,32.70
2022-10-29T07:28:34.449Z,37.72
2022-10-29T07:31:03.413Z,38.55
2022-10-29T07:33:32.251Z,43.03
2022-10-29T07:36:01.915Z,41.97
2022-10-29T07:38:30.204Z,42.83
2022-10-29T07:40:57.920Z,41.38
2022-10-29T07:43:25.744Z,43.60
2022-10-29T07:45:53.664Z,55.33
2022-10-29T07:48:21.541Z,43.47
2022-10-29T07:50:49.763Z,60.83
2022-10-29T07:53:17.537Z,45.83
2022-10-29T07:55:45.574Z,45.28
2022-10-29T07:58:13.579Z,54.95
2022-10-29T08:00:42.524Z,48.30
2022-10-29T08:03:13.463Z,45.60
2022-10-29T08:05:42.951Z,38.75
2022-10-29T08:08:12.535Z,52.42
2022-10-29T08:10:40.523Z,39.88
2022-10-29T08:13:08.728Z,46.40
2022-10-29T08:15:37.472Z,43.42
2022-10-29T08:18:10.569Z,35.28
2022-10-29T08:20:38.416Z,35.20
2022-10-29T08:23:06.030Z,40.90
2022-10-29T08:25:36.984Z,38.72
2022-10-29T08:28:05.955Z,39.60
2022-10-29T08:30:33.706Z,33.65
2022-10-29T08:33:03.894Z,44.22
2022-10-29T08:35:34.532Z,38.17
2022-10-29T08:38:02.603Z,27.85
2022-10-29T08:40:49.361Z,36.00
2022-10-29T08:43:36.052Z,32.03
2022-10-29T08:46:04.298Z,36.03
2022-10-29T08:48:38.512Z,32.55
2022-10-29T08:51:18.544Z,35.63
2022-10-29T08:54:25.035Z,36.13
2022-10-29T08:56:45.529Z,27.77
2022-10-29T08:59:17.344Z,29.92
2022-10-29T09:01:45.215Z,31.15
2022-10-29T09:04:22.726Z,33.33
2022-10-29T09:06:53.565Z,30.00
2022-10-29T09:09:31.040Z,27.05
2022-10-29T09:12:02.936Z,27.50
2022-10-29T09:14:37.051Z,26.92
2022-10-29T09:17:10.265Z,27.52
2022-10-29T09:20:04.018Z,27.15
2022-10-29T09:22:34.890Z,28.88
2022-10-29T09:25:28.766Z,31.63
2022-10-29T09:28:15.205Z,26.08
2022-10-29T09:30:58.975Z,24.38
2022-10-29T09:33:28.133Z,30.52
2022-10-29T09:35:56.680Z,24.23
2022-10-29T09:38:39.337Z,33.45
2022-10-29T09:41:07.123Z,29.20
2022-10-29T09:43:48.273Z,29.98
2022-10-29T09:46:37.099Z,26.92
2022-10-29T09:49:04.880Z,25.67
2022-10-29T09:51:38.725Z,22.90
2022-10-29T09:54:06.695Z,32.38
2022-10-29T09:56:34.539Z,34.70
2022-10-29T09:59:13.832Z,29.30
2022-10-29T10:01:41.931Z,32.20
2022-10-29T10:04:39.851Z,22.52
2022-10-29T10:07:07.659Z,32.88
2022-10-29T10:09:54.365Z,26.08
2022-10-29T10:12:24.442Z,28.88
2022-10-29T10:15:11.364Z,32.45
2022-10-29T10:17:58.334Z,30.65
2022-10-29T10:20:34.332Z,36.08
2022-10-29T10:23:02.948Z,31.70
2022-10-29T10:25:33.965Z,32.97
2022-10-29T10:28:20.882Z,22.95
2022-10-29T10:31:07.743Z,26.88
2022-10-29T10:33:37.496Z,30.02
2022-10-29T10:36:06.883Z,31.63
2022-10-29T10:38:48.591Z,37.20
2022-10-29T10:41:17.700Z,23.15
2022-10-29T10:43:46.309Z,32.53
2022-10-29T10:46:25.442Z,26.73
2022-10-29T10:49:09.005Z,31.30
2022-10-29T10:51:39.876Z,30.35
2022-10-29T10:54:23.574Z,29.73
2022-10-29T10:57:02.614Z,29.55
2022-10-29T10:59:47.153Z,26.77
2022-10-29T11:02:21.628Z,25.27
2022-10-29T11:04:51.555Z,23.55
2022-10-29T11:07:20.079Z,20.42
2022-10-29T11:09:51.325Z,29.50
2022-10-29T11:12:28.928Z,19.80
2022-10-29T11:15:06.295Z,26.27
2022-10-29T11:17:40.260Z,26.77
2022-10-29T11:20:15.188Z,24.48
2022-10-29T11:22:53.790Z,19.75
2022-10-29T11:25:34.325Z,21.08
2022-10-29T11:28:24.198Z,18.80
2022-10-29T11:31:06.372Z,24.38
2022-10-29T11:33:39.809Z,25.25
2022-10-29T11:36:13.276Z,20.63
2022-10-29T11:38:47.594Z,22.67
2022-10-29T11:41:22.246Z,23.38
2022-10-29T11:43:50.004Z,21.75
2022-10-29T11:46:31.694Z,18.23
2022-10-29T11:49:11.855Z,19.40
2022-10-29T11:51:47.168Z,21.50
2022-10-29T11:54:34.358Z,22.27
2022-10-29T11:57:14.667Z,25.20
2022-10-29T12:02:09.769Z,18.60
2022-10-29T12:04:50.121Z,21.98
2022-10-29T12:07:33.580Z,18.23
2022-10-29T12:10:19.969Z,20.50
2022-10-29T12:12:51.332Z,18.20
2022-10-29T12:15:23.644Z,19.83
2022-10-29T12:18:02.396Z,23.90
2022-10-29T12:20:42.745Z,23.92
2022-10-29T12:23:15.549Z,18.88
2022-10-29T12:25:57.836Z,19.02
2022-10-29T12:28:50.795Z,18.85
2022-10-29T12:31:21.433Z,23.80
2022-10-29T12:33:52.655Z,17.17
2022-10-29T12:36:30.092Z,25.23
2022-10-29T12:38:58.636Z,21.48
2022-10-29T12:41:43.748Z,19.00
2022-10-29T12:44:17.867Z,19.88
2022-10-29T12:46:45.887Z,22.15
2022-10-29T12:49:23.887Z,19.73
2022-10-29T12:51:54.010Z,22.10
2022-10-29T12:54:25.683Z,29.73
2022-10-29T12:56:53.854Z,14.63
2022-10-29T12:59:26.293Z,17.95
2022-10-29T13:02:12.348Z,19.40
2022-10-29T13:05:04.294Z,21.52
2022-10-29T13:07:36.352Z,19.92
2022-10-29T13:10:33.546Z,18.83
2022-10-29T13:13:14.192Z,17.40
2022-10-29T13:15:49.720Z,15.95
2022-10-29T13:18:41.152Z,24.08
2022-10-29T13:21:10.360Z,23.23
2022-10-29T13:23:39.490Z,27.23
2022-10-29T13:26:09.710Z,18.30
2022-10-29T13:28:37.574Z,23.02
2022-10-29T13:31:08.613Z,16.15
2022-10-29T13:33:41.750Z,20.27
2022-10-29T13:36:21.688Z,17.67
2022-10-29T13:41:40.533Z,16.60
2022-10-29T13:44:09.694Z,13.35
2022-10-29T13:46:45.885Z,18.35
2022-10-29T13:49:17.145Z,24.60
2022-10-29T13:51:57.873Z,18.40
2022-10-29T13:54:28.635Z,18.80
2022-10-29T13:57:16.679Z,18.05
2022-10-29T14:00:04.006Z,19.23
2022-10-29T14:02:37.285Z,15.73
2022-10-29T14:05:25.845Z,20.05
2022-10-29T14:08:12.275Z,14.35
2022-10-29T14:10:43.104Z,24.35
2022-10-29T14:13:31.783Z,21.35
2022-10-29T14:16:03.487Z,21.38
2022-10-29T14:18:33.131Z,19.83
2022-10-29T14:21:03.669Z,24.50
2022-10-29T14:23:33.457Z,15.15
2022-10-29T14:26:04.120Z,18.65
2022-10-29T14:28:35.133Z,19.50
2022-10-29T14:31:16.564Z,19.98
2022-10-29T14:33:45.695Z,15.82
2022-10-29T14:36:34.003Z,19.35
2022-10-29T14:39:04.173Z,20.63
2022-10-29T14:41:34.103Z,15.00
2022-10-29T14:44:06.009Z,14.75
2022-10-29T14:46:35.387Z,21.38
2022-10-29T14:49:03.034Z,18.77
2022-10-29T14:51:34.487Z,19.88
2022-10-29T14:54:04.477Z,16.88
2022-10-29T14:56:34.180Z,21.25
2022-10-29T14:59:04.187Z,14.38
2022-10-29T15:01:32.721Z,19.15
2022-10-29T15:04:02.365Z,22.25
2022-10-29T15:06:31.843Z,19.97
2022-10-29T15:09:03.945Z,18.37
2022-10-29T15:11:37.637Z,22.17
2022-10-29T15:16:56.459Z,18.15
2022-10-29T15:19:24.482Z,20.58
2022-10-29T15:21:53.954Z,15.75
2022-10-29T15:24:24.471Z,17.58
2022-10-29T15:27:02.588Z,23.45
2022-10-29T15:29:36.288Z,17.85
2022-10-29T15:32:14.475Z,15.25
2022-10-29T15:34:46.926Z,17.95
2022-10-29T15:37:20.854Z,18.70
2022-10-29T15:40:09.293Z,21.08
2022-10-29T15:42:41.777Z,18.60
2022-10-29T15:45:15.040Z,29.80
2022-10-29T15:47:43.525Z,19.77
2022-10-29T15:50:44.548Z,29.35
2022-10-29T15:53:16.398Z,23.83
2022-10-29T15:55:45.085Z,17.17
2022-10-29T15:58:14.495Z,22.58
2022-10-29T16:00:42.228Z,13.97
2022-10-29T16:03:21.318Z,23.30
2022-10-29T16:05:52.864Z,16.13
2022-10-29T16:08:23.321Z,26.77
2022-10-29T16:13:19.462Z,25.65
2022-10-29T16:15:47.240Z,17.48
2022-10-29T16:18:17.370Z,26.70
2022-10-29T16:20:45.090Z,25.77
2022-10-29T16:23:14.706Z,22.80
2022-10-29T16:25:43.926Z,22.67
2022-10-29T16:28:11.587Z,27.33
2022-10-29T16:33:24.743Z,23.10
2022-10-29T16:35:52.768Z,20.52
2022-10-29T16:38:20.419Z,26.50
2022-10-29T16:40:49.234Z,22.42
2022-10-29T16:43:17.434Z,18.88
2022-10-29T16:45:45.222Z,27.15
2022-10-29T16:48:13.344Z,24.00
2022-10-29T16:50:43.112Z,25.60
2022-10-29T16:53:11.356Z,25.90
2022-10-29T16:55:40.563Z,23.77
2022-10-29T16:58:16.364Z,17.92
2022-10-29T17:00:44.954Z,19.88
2022-10-29T17:03:13.614Z,22.92
2022-10-29T17:05:42.648Z,25.30
2022-10-29T17:08:10.704Z,21.30
2022-10-29T17:11:03.010Z,27.95
2022-10-29T17:13:39.042Z,19.88
2022-10-29T17:16:10.312Z,26.17
2022-10-29T17:18:38.245Z,19.02
2022-10-29T17:21:06.164Z,27.58
2022-10-29T17:23:34.229Z,26.00
2022-10-29T17:26:03.345Z,20.48
2022-10-29T17:28:31.328Z,24.60
2022-10-29T17:31:00.389Z,25.63
2022-10-29T17:33:28.304Z,31.98
2022-10-29T17:36:07.032Z,27.70
2022-10-29T17:38:35.182Z,20.85
2022-10-29T17:41:03.150Z,27.90
2022-10-29T17:43:32.220Z,23.00
2022-10-29T17:46:03.851Z,20.02
2022-10-29T17:48:35.099Z,25.63
2022-10-29T17:51:03.392Z,27.77
2022-10-29T17:53:32.379Z,22.38
2022-10-29T17:56:04.579Z,26.08
2022-10-29T17:58:32.756Z,25.60
2022-10-29T18:01:10.099Z,29.75
2022-10-29T18:03:38.731Z,23.52
2022-10-29T18:06:09.440Z,25.63
2022-10-29T18:08:49.402Z,23.25
2022-10-29T18:11:20.660Z,20.65
2022-10-29T18:13:51.385Z,31.60
2022-10-29T18:16:21.753Z,30.48
2022-10-29T18:19:01.715Z,22.90
2022-10-29T18:21:33.627Z,19.83
2022-10-29T18:24:04.492Z,24.25
2022-10-29T18:26:35.853Z,26.35
2022-10-29T18:29:06.452Z,23.20
2022-10-29T18:31:35.995Z,19.48
2022-10-29T18:34:06.576Z,26.83
2022-10-29T18:36:37.741Z,20.65
2022-10-29T18:39:06.525Z,23.20
2022-10-29T18:41:37.522Z,22.75
2022-10-29T18:44:05.240Z,21.17
2022-10-29T18:46:36.367Z,25.00
2022-10-29T18:49:06.719Z,25.83
2022-10-29T18:51:35.016Z,27.02
2022-10-29T18:54:03.806Z,20.55
2022-10-29T18:56:36.048Z,24.90
2022-10-29T18:59:05.694Z,22.17
2022-10-29T19:01:35.312Z,24.15
2022-10-29T19:04:07.444Z,24.45
2022-10-29T19:06:37.928Z,21.98
2022-10-29T19:09:08.279Z,24.60
2022-10-29T19:11:37.634Z,24.65
2022-10-29T19:14:10.217Z,26.80
2022-10-29T19:16:37.830Z,26.92
2022-10-29T19:19:07.349Z,29.63
2022-10-29T19:21:37.501Z,22.98
2022-10-29T19:24:05.751Z,22.57
2022-10-29T19:26:35.048Z,26.95
2022-10-29T19:29:06.229Z,21.95
2022-10-29T19:31:34.620Z,21.40
2022-10-29T19:34:05.551Z,27.17
2022-10-29T19:36:34.663Z,19.42
2022-10-29T19:39:05.914Z,23.48
2022-10-29T19:41:34.731Z,23.67
2022-10-29T19:44:03.478Z,28.63
2022-10-29T19:46:34.140Z,20.10
2022-10-29T19:49:04.903Z,25.23
2022-10-29T19:51:32.640Z,26.92
2022-10-29T19:54:04.330Z,27.13
2022-10-29T19:56:35.569Z,29.02
2022-10-29T19:59:04.497Z,24.20
2022-10-29T20:01:33.913Z,22.67
2022-10-29T20:04:04.869Z,24.75
2022-10-29T20:06:33.037Z,37.97
2022-10-29T20:09:04.352Z,43.00
2022-10-29T20:11:35.182Z,21.75
2022-10-29T20:14:02.990Z,26.65
2022-10-29T20:16:31.877Z,25.42
2022-10-29T20:19:05.113Z,24.70
2022-10-29T20:21:32.871Z,22.67
2022-10-29T20:24:03.287Z,29.58
2022-10-29T20:26:35.187Z,23.98
2022-10-29T20:29:02.983Z,18.88
2022-10-29T20:31:34.742Z,19.10
2022-10-29T20:34:05.534Z,19.88
2022-10-29T20:36:34.289Z,22.83
2022-10-29T20:39:04.551Z,27.52
2022-10-29T20:41:32.590Z,24.17
2022-10-29T20:44:02.966Z,25.30
2022-10-29T20:46:32.722Z,27.20
2022-10-29T20:49:04.129Z,16.42
2022-10-29T20:51:32.930Z,28.77
2022-10-29T20:54:02.608Z,27.20
2022-10-29T20:56:33.099Z,25.30
2022-10-29T21:01:30.828Z,29.33
2022-10-29T21:03:58.642Z,23.17
2022-10-29T21:06:26.831Z,23.13
2022-10-29T21:08:54.957Z,26.55
2022-10-29T21:11:23.333Z,27.52
2022-10-29T21:13:52.616Z,30.40
2022-10-29T21:16:25.059Z,21.77
2022-10-29T21:18:54.136Z,35.60
2022-10-29T21:21:23.700Z,28.92
2022-10-29T21:24:00.191Z,30.08
2022-10-29T21:26:33.138Z,27.38
2022-10-29T21:29:03.629Z,25.80
2022-10-29T21:34:03.779Z,23.30
2022-10-29T21:36:32.482Z,21.83
2022-10-29T21:39:39.773Z,31.73
2022-10-29T21:42:12.502Z,27.15
2022-10-29T21:44:40.733Z,22.85
2022-10-29T21:47:08.259Z,22.70
2022-10-29T21:49:36.133Z,28.17
2022-10-29T21:52:05.170Z,25.98
2022-10-29T21:54:33.182Z,21.75
2022-10-29T21:57:01.406Z,22.35
2022-10-29T21:59:31.405Z,24.17
2022-10-29T22:02:01.242Z,22.20
2022-10-29T22:04:32.360Z,31.77
2022-10-29T22:07:09.496Z,27.08
2022-10-29T22:09:37.273Z,25.20
2022-10-29T22:12:05.035Z,27.42
2022-10-29T22:14:33.086Z,24.98
2022-10-29T22:17:01.771Z,25.08
2022-10-29T22:19:31.188Z,18.08
2022-10-29T22:21:58.797Z,21.45
2022-10-29T22:24:27.483Z,17.60
2022-10-29T22:26:55.143Z,24.17
2022-10-29T22:29:22.867Z,25.98
2022-10-29T22:31:50.783Z,26.75
2022-10-29T22:34:18.630Z,23.30
2022-10-29T22:36:46.241Z,21.25
2022-10-29T22:39:14.177Z,22.08
2022-10-29T22:41:42.343Z,26.02
2022-10-29T22:44:10.738Z,25.48
2022-10-29T22:46:39.129Z,21.27
2022-10-29T22:49:07.362Z,24.55
2022-10-29T22:51:35.548Z,26.27
2022-10-29T22:54:05.390Z,25.10
2022-10-29T22:56:34.602Z,25.35
2022-10-29T22:59:02.871Z,20.50
2022-10-29T23:01:42.080Z,22.88
2022-10-29T23:04:13.820Z,24.90
2022-10-29T23:06:41.704Z,28.70
2022-10-29T23:09:09.360Z,23.52
2022-10-29T23:11:39.329Z,23.73
2022-10-29T23:14:08.950Z,21.88
2022-10-29T23:16:37.082Z,25.88
2022-10-29T23:19:06.243Z,27.40
2022-10-29T23:21:38.953Z,19.98
2022-10-29T23:24:07.060Z,27.38
2022-10-29T23:26:34.938Z,17.40
2022-10-29T23:29:04.669Z,20.67
2022-10-29T23:31:35.595Z,15.98
2022-10-29T23:34:03.176Z,22.80
2022-10-29T23:36:34.054Z,28.65
2022-10-29T23:39:05.210Z,30.95
2022-10-29T23:41:33.675Z,28.35
2022-10-29T23:44:02.304Z,21.63
2022-10-29T23:46:30.405Z,24.55
2022-10-29T23:48:58.102Z,21.88
2022-10-29T23:51:25.870Z,25.77
2022-10-29T23:53:56.607Z,27.02
2022-10-29T23:56:25.958Z,27.10
2022-10-29T23:58:53.805Z,24.58
